Time;durP1;ratioP1;P1;durP2;ratioP2;P2;SDS_P1;SDS_P2;PMS_P1;PMS_P2;Temp;Humidity;BMP_temperature;BMP_pressure;BME280_temperature;BME280_humidity;BME280_pressure;Samples;Min_cycle;Max_cycle;Signal;HPM_P1;HPM_P2
2022/11/11 00:01:41;;;;;;;13.37;7.37;;;;;;;;;;5049479;28;20139;-62
2022/11/11 00:04:07;;;;;;;19.27;8.07;;;;;;;;;;5050266;28;20041;-62
2022/11/11 00:06:33;;;;;;;16.03;8.30;;;;;;;;;;5049961;28;20503;-62
2022/11/11 00:08:59;;;;;;;17.63;7.60;;;;;;;;;;5071849;28;20056;-62
2022/11/11 00:11:25;;;;;;;19.10;8.23;;;;;;;;;;5075297;28;20052;-62
2022/11/11 00:13:51;;;;;;;17.33;9.70;;;;;;;;;;5069336;28;20521;-62
2022/11/11 00:16:18;;;;;;;16.33;7.63;;;;;;;;;;5069578;28;20477;-62
2022/11/11 00:27:11;;;;;;;16.33;7.97;;;;;;;;;;5049632;28;20045;-62
2022/11/11 00:29:37;;;;;;;13.93;8.80;;;;;;;;;;5049367;28;20116;-62
2022/11/11 00:32:22;;;;;;;20.87;9.33;;;;;;;;;;5049718;28;20134;-62
2022/11/11 00:37:35;;;;;;;15.57;8.63;;;;;;;;;;5037948;28;20045;-62
2022/11/11 00:40:01;;;;;;;16.20;8.67;;;;;;;;;;5067653;28;20044;-62
2022/11/11 00:42:27;;;;;;;17.17;9.30;;;;;;;;;;5069269;28;20052;-62
2022/11/11 00:44:53;;;;;;;31.33;10.60;;;;;;;;;;5068380;28;20055;-62
2022/11/11 00:52:50;;;;;;;23.63;10.47;;;;;;;;;;5053087;28;20052;-62
2022/11/11 00:55:16;;;;;;;17.20;9.83;;;;;;;;;;5068393;28;20161;-62
2022/11/11 00:57:42;;;;;;;16.90;9.53;;;;;;;;;;5068917;28;20059;-63
2022/11/11 01:00:08;;;;;;;18.50;9.10;;;;;;;;;;5068865;28;20102;-63
2022/11/11 01:02:34;;;;;;;21.00;10.23;;;;;;;;;;5068407;28;20044;-62
2022/11/11 01:05:00;;;;;;;20.63;10.83;;;;;;;;;;5068180;28;20510;-62
2022/11/11 01:07:26;;;;;;;17.67;10.27;;;;;;;;;;5068751;28;20395;-62
2022/11/11 01:09:52;;;;;;;17.67;9.67;;;;;;;;;;5068198;28;20048;-62
2022/11/11 01:12:18;;;;;;;29.87;11.07;;;;;;;;;;5068639;28;20049;-62
2022/11/11 01:14:45;;;;;;;21.13;11.03;;;;;;;;;;5068522;28;20088;-62
2022/11/11 01:17:11;;;;;;;20.53;11.43;;;;;;;;;;5067239;28;20055;-62
2022/11/11 01:19:37;;;;;;;23.07;12.27;;;;;;;;;;5069051;28;20044;-62
2022/11/11 01:22:03;;;;;;;26.03;13.37;;;;;;;;;;5068189;28;20118;-62
2022/11/11 01:24:29;;;;;;;21.60;12.83;;;;;;;;;;5068262;28;20479;-62
2022/11/11 01:26:55;;;;;;;22.93;13.40;;;;;;;;;;5068812;28;20072;-62
2022/11/11 01:29:21;;;;;;;23.10;13.80;;;;;;;;;;5067258;28;20585;-62
2022/11/11 01:31:47;;;;;;;19.43;13.80;;;;;;;;;;5056811;28;20482;-62
2022/11/11 01:34:13;;;;;;;21.93;14.97;;;;;;;;;;5048339;28;20568;-63
2022/11/11 01:36:39;;;;;;;22.83;13.47;;;;;;;;;;5047604;28;20041;-62
2022/11/11 01:39:05;;;;;;;27.10;14.00;;;;;;;;;;5060776;28;20044;-62
2022/11/11 01:41:33;;;;;;;27.13;16.43;;;;;;;;;;5068420;28;20057;-62
2022/11/11 01:44:00;;;;;;;29.13;14.73;;;;;;;;;;5068151;28;20521;-62
2022/11/11 01:46:39;;;;;;;27.40;16.67;;;;;;;;;;5068317;28;20075;-62
2022/11/11 01:49:20;;;;;;;28.37;16.00;;;;;;;;;;5067556;28;20047;-62
2022/11/11 01:52:18;;;;;;;34.80;17.50;;;;;;;;;;5063786;28;20044;-62
2022/11/11 01:54:46;;;;;;;31.20;18.57;;;;;;;;;;5035839;28;20049;-62
2022/11/11 01:57:15;;;;;;;31.60;18.60;;;;;;;;;;5050219;28;20495;-62
2022/11/11 01:59:43;;;;;;;34.80;17.97;;;;;;;;;;5051381;28;20048;-62
2022/11/11 02:02:16;;;;;;;37.10;18.20;;;;;;;;;;5052266;28;20049;-62
2022/11/11 02:07:30;;;;;;;36.10;21.13;;;;;;;;;;5051799;28;20049;-62
2022/11/11 02:09:57;;;;;;;32.87;20.10;;;;;;;;;;5051718;28;20045;-62
2022/11/11 02:15:08;;;;;;;36.87;20.83;;;;;;;;;;5070971;28;20426;-63
2022/11/11 02:17:34;;;;;;;37.50;22.40;;;;;;;;;;5072075;28;20041;-62
2022/11/11 02:20:01;;;;;;;42.07;23.40;;;;;;;;;;5071203;28;20089;-62
2022/11/11 02:22:46;;;;;;;34.63;22.30;;;;;;;;;;5071924;28;20098;-62
2022/11/11 02:25:14;;;;;;;39.83;23.90;;;;;;;;;;5069613;28;20044;-62
2022/11/11 02:27:41;;;;;;;37.13;22.90;;;;;;;;;;5051349;28;20059;-62
2022/11/11 02:30:14;;;;;;;45.77;24.47;;;;;;;;;;5051359;28;20045;-63
2022/11/11 02:32:40;;;;;;;35.00;25.97;;;;;;;;;;5052818;28;20407;-63
2022/11/11 02:35:18;;;;;;;39.83;23.47;;;;;;;;;;5051572;28;20286;-62
2022/11/11 02:37:45;;;;;;;46.50;24.43;;;;;;;;;;5051452;28;20041;-62
2022/11/11 02:40:13;;;;;;;48.03;24.23;;;;;;;;;;5065261;28;20048;-63
2022/11/11 02:42:39;;;;;;;34.70;23.50;;;;;;;;;;5070665;28;20044;-63
2022/11/11 02:45:06;;;;;;;48.67;24.60;;;;;;;;;;5071222;28;20499;-62
2022/11/11 02:47:32;;;;;;;41.53;24.90;;;;;;;;;;5070766;28;20493;-62
2022/11/11 02:49:58;;;;;;;40.60;25.00;;;;;;;;;;5063346;28;20418;-63
2022/11/11 02:52:24;;;;;;;38.77;25.43;;;;;;;;;;5051425;28;20056;-62
2022/11/11 02:54:50;;;;;;;46.73;26.73;;;;;;;;;;5051450;28;20071;-63
2022/11/11 02:57:17;;;;;;;43.07;25.93;;;;;;;;;;5050797;28;20049;-62
2022/11/11 02:59:43;;;;;;;43.87;27.30;;;;;;;;;;5050861;28;20775;-62
2022/11/11 03:02:09;;;;;;;43.10;24.90;;;;;;;;;;5051330;28;20506;-62
2022/11/11 03:04:37;;;;;;;46.63;27.43;;;;;;;;;;5058358;28;20045;-62
2022/11/11 03:07:03;;;;;;;43.13;26.90;;;;;;;;;;5059363;28;20527;-62
2022/11/11 03:09:29;;;;;;;50.00;27.00;;;;;;;;;;5051136;28;20044;-62
2022/11/11 03:11:56;;;;;;;47.13;26.13;;;;;;;;;;5050144;28;20053;-62
2022/11/11 03:14:22;;;;;;;48.47;28.60;;;;;;;;;;5050778;28;20110;-62
2022/11/11 03:19:36;;;;;;;51.47;29.77;;;;;;;;;;5062090;28;20111;-62
2022/11/11 03:22:02;;;;;;;51.97;28.17;;;;;;;;;;5050350;28;20048;-63
2022/11/11 03:27:31;;;;;;;52.07;28.63;;;;;;;;;;5014103;28;20813;-62
2022/11/11 03:29:57;;;;;;;49.90;28.07;;;;;;;;;;5045941;28;20049;-62
2022/11/11 03:32:23;;;;;;;50.97;28.37;;;;;;;;;;5062935;28;20044;-62
2022/11/11 03:34:49;;;;;;;48.70;28.83;;;;;;;;;;5071438;28;20051;-62
2022/11/11 03:40:00;;;;;;;54.93;30.00;;;;;;;;;;5070406;28;20040;-63
2022/11/11 03:42:26;;;;;;;49.97;29.67;;;;;;;;;;5069763;28;20040;-63
2022/11/11 03:44:52;;;;;;;55.10;30.33;;;;;;;;;;5058398;28;20510;-62
2022/11/11 03:47:19;;;;;;;59.07;29.47;;;;;;;;;;5050275;28;20056;-63
2022/11/11 03:49:45;;;;;;;57.50;31.13;;;;;;;;;;5050251;28;20427;-63
2022/11/11 03:52:12;;;;;;;49.03;30.13;;;;;;;;;;5050252;28;20033;-62
2022/11/11 03:54:38;;;;;;;52.07;30.77;;;;;;;;;;5048600;28;20052;-63
2022/11/11 03:59:48;;;;;;;49.43;29.00;;;;;;;;;;5050017;28;20084;-63
2022/11/11 04:10:30;;;;;;;44.50;28.63;;;;;;;;;;5049976;28;20045;-63
2022/11/11 04:21:57;;;;;;;44.03;27.33;;;;;;;;;;5069208;28;20495;-63
2022/11/11 04:23:58;;;;;;;46.40;28.90;;;;;;;;;;5061745;28;20056;-62
2022/11/11 04:26:24;;;;;;;41.17;26.40;;;;;;;;;;5070111;28;20036;-63
2022/11/11 04:31:34;;;;;;;39.33;25.53;;;;;;;;;;5069133;28;20057;-62
2022/11/11 04:34:01;;;;;;;55.53;28.67;;;;;;;;;;5069417;28;20494;-62
2022/11/11 04:36:27;;;;;;;46.13;27.77;;;;;;;;;;5069476;28;20384;-63
2022/11/11 04:41:38;;;;;;;36.27;24.33;;;;;;;;;;5083261;28;20052;-63
2022/11/11 04:46:49;;;;;;;37.53;24.23;;;;;;;;;;5068466;28;20395;-62
2022/11/11 04:49:15;;;;;;;38.83;25.20;;;;;;;;;;5069325;28;20505;-63
2022/11/11 04:54:25;;;;;;;45.43;27.17;;;;;;;;;;5063372;28;20053;-63
2022/11/11 04:56:53;;;;;;;44.93;25.93;;;;;;;;;;5058410;28;20099;-63
2022/11/11 04:59:19;;;;;;;39.33;25.93;;;;;;;;;;5057929;28;20599;-63
2022/11/11 05:04:30;;;;;;;38.83;25.90;;;;;;;;;;5059849;28;20056;-63
2022/11/11 05:09:41;;;;;;;38.93;24.13;;;;;;;;;;5058289;28;20061;-63
2022/11/11 05:12:07;;;;;;;40.00;25.40;;;;;;;;;;5054250;28;20103;-62
2022/11/11 05:23:08;;;;;;;42.53;24.43;;;;;;;;;;5026384;28;20466;-62
2022/11/11 05:25:34;;;;;;;47.37;26.40;;;;;;;;;;5024245;28;20075;-63
2022/11/11 05:28:00;;;;;;;44.60;25.83;;;;;;;;;;5033936;28;20499;-63
2022/11/11 05:30:26;;;;;;;38.10;26.17;;;;;;;;;;5048379;28;20045;-62
2022/11/11 05:32:54;;;;;;;41.60;25.17;;;;;;;;;;5047777;28;20041;-63
2022/11/11 05:35:20;;;;;;;38.73;26.37;;;;;;;;;;5048357;28;20054;-62
2022/11/11 05:40:31;;;;;;;41.80;24.43;;;;;;;;;;5049099;28;20077;-63
2022/11/11 05:42:57;;;;;;;37.13;24.87;;;;;;;;;;5053916;28;20083;-63
2022/11/11 05:45:23;;;;;;;36.97;23.70;;;;;;;;;;5068205;28;20463;-63
2022/11/11 05:47:49;;;;;;;40.23;25.60;;;;;;;;;;5068169;28;20094;-62
2022/11/11 05:50:15;;;;;;;42.53;24.80;;;;;;;;;;5061976;28;20041;-63
2022/11/11 05:52:46;;;;;;;38.37;23.97;;;;;;;;;;5048558;28;20781;-62
2022/11/11 05:55:12;;;;;;;36.87;23.40;;;;;;;;;;5048201;28;20064;-63
2022/11/11 05:57:38;;;;;;;39.83;23.57;;;;;;;;;;5047926;28;20083;-63
2022/11/11 06:00:04;;;;;;;38.87;22.80;;;;;;;;;;5053250;28;20065;-62
2022/11/11 06:02:30;;;;;;;35.87;21.97;;;;;;;;;;5070007;28;20048;-63
2022/11/11 06:04:56;;;;;;;43.50;25.33;;;;;;;;;;5065152;28;20045;-63
2022/11/11 06:07:22;;;;;;;39.43;23.60;;;;;;;;;;5066580;28;20415;-63
2022/11/11 06:09:48;;;;;;;35.87;21.17;;;;;;;;;;5056490;28;20233;-63
2022/11/11 06:12:14;;;;;;;36.83;22.80;;;;;;;;;;5045971;28;20053;-63
2022/11/11 06:14:40;;;;;;;34.43;22.73;;;;;;;;;;5046280;28;20505;-63
2022/11/11 06:17:06;;;;;;;29.47;21.67;;;;;;;;;;5046749;28;20041;-63
2022/11/11 06:19:32;;;;;;;34.77;23.37;;;;;;;;;;5047961;28;20106;-63
2022/11/11 06:22:00;;;;;;;38.67;21.10;;;;;;;;;;5048120;28;20106;-63
2022/11/11 06:24:26;;;;;;;31.37;21.77;;;;;;;;;;5047426;28;20398;-63
2022/11/11 06:26:52;;;;;;;40.33;22.37;;;;;;;;;;5047909;28;20782;-63
2022/11/11 06:29:18;;;;;;;33.03;20.80;;;;;;;;;;5064207;28;20251;-63
2022/11/11 06:31:44;;;;;;;31.77;22.57;;;;;;;;;;5071844;28;20139;-63
2022/11/11 06:34:10;;;;;;;40.53;22.27;;;;;;;;;;5047417;28;20076;-63
2022/11/11 06:36:36;;;;;;;32.80;21.07;;;;;;;;;;5046705;28;20091;-63
2022/11/11 06:39:02;;;;;;;30.93;20.50;;;;;;;;;;5047949;28;20131;-63
2022/11/11 06:41:29;;;;;;;39.37;23.13;;;;;;;;;;5047569;28;20139;-63
2022/11/11 06:43:55;;;;;;;35.80;21.00;;;;;;;;;;5054551;28;20047;-63
2022/11/11 06:46:24;;;;;;;35.50;21.10;;;;;;;;;;5051222;28;20466;-63
2022/11/11 06:48:50;;;;;;;31.73;20.60;;;;;;;;;;5050051;28;20040;-63
2022/11/11 06:51:17;;;;;;;37.70;22.17;;;;;;;;;;5051878;28;20036;-63
2022/11/11 06:53:43;;;;;;;33.97;21.17;;;;;;;;;;5051369;28;20170;-63
2022/11/11 06:56:11;;;;;;;35.67;20.20;;;;;;;;;;5051236;28;20299;-63
2022/11/11 06:58:37;;;;;;;37.10;20.43;;;;;;;;;;5058766;28;20429;-63
2022/11/11 07:01:04;;;;;;;33.27;19.93;;;;;;;;;;5083967;28;20044;-63
2022/11/11 07:03:30;;;;;;;30.03;19.70;;;;;;;;;;5070166;28;20045;-63
2022/11/11 07:05:57;;;;;;;34.40;20.07;;;;;;;;;;5069922;28;20056;-63
2022/11/11 07:08:23;;;;;;;28.63;18.23;;;;;;;;;;5071598;28;20048;-63
2022/11/11 07:10:50;;;;;;;28.53;19.43;;;;;;;;;;5070626;28;20048;-63
2022/11/11 07:13:16;;;;;;;30.37;18.83;;;;;;;;;;5072298;28;20424;-63
2022/11/11 07:15:43;;;;;;;26.90;18.67;;;;;;;;;;5091208;28;20082;-63
2022/11/11 07:18:09;;;;;;;29.20;20.23;;;;;;;;;;5057739;28;20063;-63
2022/11/11 07:20:36;;;;;;;27.20;19.40;;;;;;;;;;5067445;28;20049;-63
2022/11/11 07:23:02;;;;;;;32.17;19.13;;;;;;;;;;5070407;28;20047;-63
2022/11/11 07:25:28;;;;;;;30.67;18.47;;;;;;;;;;5064578;28;20068;-63
2022/11/11 07:27:54;;;;;;;29.17;17.57;;;;;;;;;;5050505;28;20052;-63
2022/11/11 07:30:20;;;;;;;26.43;18.67;;;;;;;;;;5049811;28;20051;-63
2022/11/11 07:32:47;;;;;;;28.57;18.07;;;;;;;;;;5068691;28;20040;-63
2022/11/11 07:35:14;;;;;;;29.87;17.90;;;;;;;;;;5087787;28;20079;-63
2022/11/11 07:37:40;;;;;;;29.87;18.80;;;;;;;;;;5090767;28;20048;-63
2022/11/11 07:40:07;;;;;;;26.93;16.57;;;;;;;;;;5090484;28;20051;-63
2022/11/11 07:42:37;;;;;;;26.67;17.53;;;;;;;;;;5084833;28;20410;-62
2022/11/11 07:45:04;;;;;;;27.80;17.10;;;;;;;;;;5060218;28;20052;-63
2022/11/11 07:47:30;;;;;;;25.63;17.17;;;;;;;;;;5056486;28;20051;-63
2022/11/11 07:49:56;;;;;;;27.83;17.00;;;;;;;;;;5062566;28;20048;-63
2022/11/11 07:52:22;;;;;;;27.10;16.57;;;;;;;;;;5067630;28;20045;-63
2022/11/11 07:54:49;;;;;;;24.33;16.63;;;;;;;;;;5069132;28;20048;-62
2022/11/11 07:57:15;;;;;;;25.03;15.90;;;;;;;;;;5069771;28;20044;-63
2022/11/11 07:59:41;;;;;;;24.40;16.10;;;;;;;;;;5070072;28;20044;-63
2022/11/11 08:02:09;;;;;;;26.27;15.57;;;;;;;;;;5066461;28;20033;-63
2022/11/11 08:04:36;;;;;;;26.17;16.27;;;;;;;;;;5050952;28;20041;-63
2022/11/11 08:07:02;;;;;;;30.13;15.47;;;;;;;;;;5069692;28;20053;-62
2022/11/11 08:09:28;;;;;;;28.73;15.87;;;;;;;;;;5067632;28;20048;-62
2022/11/11 08:14:39;;;;;;;31.50;17.23;;;;;;;;;;5069540;28;20127;-63
2022/11/11 08:17:05;;;;;;;24.97;15.13;;;;;;;;;;5069752;28;20071;-63
2022/11/11 08:19:31;;;;;;;25.77;15.27;;;;;;;;;;5069657;28;20499;-63
2022/11/11 08:21:57;;;;;;;29.17;16.40;;;;;;;;;;5062554;28;20047;-63
2022/11/11 08:24:23;;;;;;;26.50;14.93;;;;;;;;;;5061278;28;20114;-62
2022/11/11 08:26:49;;;;;;;20.13;15.17;;;;;;;;;;5055068;28;20051;-63
2022/11/11 08:29:15;;;;;;;22.30;14.77;;;;;;;;;;5068406;28;20044;-63
2022/11/11 08:31:41;;;;;;;23.00;15.03;;;;;;;;;;5067771;28;20045;-63
2022/11/11 08:34:07;;;;;;;20.87;13.27;;;;;;;;;;5053726;28;20056;-63
2022/11/11 08:36:33;;;;;;;23.77;14.30;;;;;;;;;;5065479;28;20084;-63
2022/11/11 08:38:59;;;;;;;18.97;14.00;;;;;;;;;;5062575;28;20098;-63
2022/11/11 08:41:26;;;;;;;20.17;13.93;;;;;;;;;;5058192;28;20495;-63
2022/11/11 08:43:52;;;;;;;23.60;14.03;;;;;;;;;;5056659;28;20036;-63
2022/11/11 08:46:18;;;;;;;23.00;15.07;;;;;;;;;;5055285;28;20119;-63
2022/11/11 08:48:45;;;;;;;19.00;13.23;;;;;;;;;;5066812;28;20083;-63
2022/11/11 08:51:11;;;;;;;24.00;13.93;;;;;;;;;;5048930;28;20464;-63
2022/11/11 08:53:37;;;;;;;23.47;14.50;;;;;;;;;;5048456;28;20105;-63
2022/11/11 08:56:03;;;;;;;19.27;13.17;;;;;;;;;;5048257;28;20446;-62
2022/11/11 08:58:29;;;;;;;20.70;13.97;;;;;;;;;;5048218;28;20415;-63
2022/11/11 09:00:55;;;;;;;18.40;13.00;;;;;;;;;;5048278;28;20044;-63
2022/11/11 09:03:21;;;;;;;20.63;13.97;;;;;;;;;;5048138;28;20048;-63
2022/11/11 09:05:47;;;;;;;18.53;13.53;;;;;;;;;;5050345;28;20041;-63
2022/11/11 09:08:14;;;;;;;22.30;12.83;;;;;;;;;;5061694;28;20044;-63
2022/11/11 09:10:40;;;;;;;19.43;12.90;;;;;;;;;;5047766;28;20463;-63
2022/11/11 09:13:07;;;;;;;19.63;12.17;;;;;;;;;;5048032;28;20064;-63
2022/11/11 09:15:33;;;;;;;15.53;11.67;;;;;;;;;;5048486;28;20136;-63
2022/11/11 09:18:00;;;;;;;20.30;12.07;;;;;;;;;;5047817;28;20057;-63
2022/11/11 09:20:26;;;;;;;18.17;13.37;;;;;;;;;;5048241;28;20589;-63
2022/11/11 09:22:52;;;;;;;24.17;13.23;;;;;;;;;;5048041;28;20056;-62
2022/11/11 09:25:19;;;;;;;17.60;12.70;;;;;;;;;;5047827;28;20049;-63
2022/11/11 09:27:53;;;;;;;19.40;12.80;;;;;;;;;;5047997;28;20045;-62
2022/11/11 09:30:20;;;;;;;18.20;12.03;;;;;;;;;;5060598;28;20045;-63
2022/11/11 09:32:46;;;;;;;23.30;14.30;;;;;;;;;;5050842;28;20049;-63
2022/11/11 09:35:12;;;;;;;17.30;12.03;;;;;;;;;;5047496;28;20495;-63
2022/11/11 09:37:38;;;;;;;20.47;13.17;;;;;;;;;;5047741;28;20059;-63
2022/11/11 09:40:04;;;;;;;20.03;12.63;;;;;;;;;;5047881;28;20052;-63
2022/11/11 09:42:38;;;;;;;19.80;12.67;;;;;;;;;;5047732;28;20135;-62
2022/11/11 09:45:23;;;;;;;22.30;12.97;;;;;;;;;;5047368;28;20041;-62
2022/11/11 09:47:58;;;;;;;21.43;12.13;;;;;;;;;;5047489;28;20045;-62
2022/11/11 09:50:29;;;;;;;19.20;12.47;;;;;;;;;;5047638;28;20049;-62
2022/11/11 09:53:10;;;;;;;16.80;11.97;;;;;;;;;;5047888;28;20423;-62
2022/11/11 09:55:39;;;;;;;18.97;11.63;;;;;;;;;;5047677;28;20052;-63
2022/11/11 09:58:11;;;;;;;21.53;11.73;;;;;;;;;;5065502;28;21005;-62
2022/11/11 10:00:40;;;;;;;17.17;12.17;;;;;;;;;;5047767;28;20463;-63
2022/11/11 10:03:11;;;;;;;18.03;11.67;;;;;;;;;;5047519;28;20064;-63
2022/11/11 10:05:40;;;;;;;16.30;10.97;;;;;;;;;;5057525;28;20047;-63
2022/11/11 10:08:12;;;;;;;17.90;11.03;;;;;;;;;;5067056;28;20126;-63
2022/11/11 10:10:45;;;;;;;16.80;11.83;;;;;;;;;;5067479;28;20380;-62
2022/11/11 10:13:40;;;;;;;16.03;11.23;;;;;;;;;;5067434;28;20510;-63
2022/11/11 10:16:14;;;;;;;20.37;11.93;;;;;;;;;;5062349;28;20425;-62
2022/11/11 10:19:04;;;;;;;16.27;11.30;;;;;;;;;;5070207;28;20502;-63
2022/11/11 10:21:44;;;;;;;18.40;12.23;;;;;;;;;;5051614;28;20067;-62
2022/11/11 10:24:16;;;;;;;13.43;10.00;;;;;;;;;;5051299;28;20191;-63
2022/11/11 10:26:44;;;;;;;13.75;10.77;;;;;;;;;;5050101;28;20418;-62
2022/11/11 10:29:18;;;;;;;15.83;10.77;;;;;;;;;;5050951;28;20487;-63
2022/11/11 10:31:46;;;;;;;15.13;9.97;;;;;;;;;;5053856;28;20056;-63
2022/11/11 10:34:13;;;;;;;15.47;10.13;;;;;;;;;;5071267;28;20491;-62
2022/11/11 10:36:47;;;;;;;15.07;10.37;;;;;;;;;;5071242;28;20499;-62
2022/11/11 10:39:16;;;;;;;16.37;10.77;;;;;;;;;;5054169;28;20040;-62
2022/11/11 10:41:49;;;;;;;16.10;11.00;;;;;;;;;;5051162;28;20056;-63
2022/11/11 10:44:19;;;;;;;16.63;11.07;;;;;;;;;;5050036;28;20059;-62
2022/11/11 10:46:52;;;;;;;15.40;10.73;;;;;;;;;;5049499;28;20052;-62
2022/11/11 10:49:20;;;;;;;17.63;11.00;;;;;;;;;;5051216;28;20414;-63
2022/11/11 10:51:51;;;;;;;13.67;10.80;;;;;;;;;;5050906;28;20461;-63
2022/11/11 10:54:31;;;;;;;21.63;12.00;;;;;;;;;;5055073;28;20041;-62
2022/11/11 10:57:00;;;;;;;14.67;10.93;;;;;;;;;;5069711;28;20305;-63
2022/11/11 10:59:31;;;;;;;18.37;11.07;;;;;;;;;;5070379;28;20052;-63
2022/11/11 11:02:04;;;;;;;17.47;11.07;;;;;;;;;;5070629;28;20036;-63
2022/11/11 11:04:36;;;;;;;16.35;11.32;;;;;;;;;;5068845;28;20051;-63
2022/11/11 11:07:05;;;;;;;14.82;11.02;;;;;;;;;;5070525;28;20045;-63
2022/11/11 11:09:37;;;;;;;16.80;10.83;;;;;;;;;;5068896;28;20045;-63
2022/11/11 11:12:09;;;;;;;15.17;11.47;;;;;;;;;;5070226;28;20099;-63
2022/11/11 11:14:37;;;;;;;20.77;12.07;;;;;;;;;;5070626;28;20052;-63
2022/11/11 11:17:13;;;;;;;17.23;10.90;;;;;;;;;;5060948;28;20741;-63
2022/11/11 11:19:39;;;;;;;13.97;10.47;;;;;;;;;;5050296;28;20086;-63
2022/11/11 11:22:05;;;;;;;13.73;10.10;;;;;;;;;;5049838;28;20110;-63
2022/11/11 11:24:36;;;;;;;16.00;10.57;;;;;;;;;;5049040;28;20045;-62
2022/11/11 11:27:03;;;;;;;15.70;10.57;;;;;;;;;;5049952;28;20056;-63
2022/11/11 11:29:31;;;;;;;17.33;10.40;;;;;;;;;;5049133;28;20044;-63
2022/11/11 11:32:10;;;;;;;18.83;10.60;;;;;;;;;;5049090;28;20103;-62
2022/11/11 11:34:45;;;;;;;12.00;9.60;;;;;;;;;;5049840;28;20045;-63
2022/11/11 11:37:11;;;;;;;12.60;9.70;;;;;;;;;;5050116;28;20511;-63
2022/11/11 11:39:39;;;;;;;16.47;10.17;;;;;;;;;;5048747;28;20045;-62
2022/11/11 11:42:05;;;;;;;13.03;10.13;;;;;;;;;;5049540;28;20130;-62
2022/11/11 11:44:33;;;;;;;15.20;9.43;;;;;;;;;;5049784;28;20128;-63
2022/11/11 11:47:15;;;;;;;11.93;9.17;;;;;;;;;;5049920;28;20115;-63
2022/11/11 11:50:00;;;;;;;11.00;8.93;;;;;;;;;;5060754;28;20040;-63
2022/11/11 11:52:41;;;;;;;9.43;8.30;;;;;;;;;;5069633;28;20056;-63
2022/11/11 11:55:13;;;;;;;11.10;8.97;;;;;;;;;;5068994;28;20063;-63
2022/11/11 11:57:51;;;;;;;12.83;9.90;;;;;;;;;;5070032;28;20053;-63
2022/11/11 12:00:20;;;;;;;14.23;8.27;;;;;;;;;;5068843;28;20143;-63
2022/11/11 12:03:01;;;;;;;11.53;8.27;;;;;;;;;;5069024;28;20071;-62
2022/11/11 12:05:37;;;;;;;11.07;8.00;;;;;;;;;;5069840;28;20043;-62
2022/11/11 12:08:09;;;;;;;11.37;9.13;;;;;;;;;;5069353;28;20045;-62
2022/11/11 12:10:54;;;;;;;12.63;9.00;;;;;;;;;;5069311;28;20063;-63
2022/11/11 12:13:36;;;;;;;15.10;8.90;;;;;;;;;;5067773;28;20432;-62
2022/11/11 12:16:02;;;;;;;13.03;7.97;;;;;;;;;;5069307;28;20363;-62
2022/11/11 12:18:39;;;;;;;9.83;7.80;;;;;;;;;;5069252;28;20461;-63
2022/11/11 12:21:11;;;;;;;13.50;8.30;;;;;;;;;;5068803;28;20056;-62
2022/11/11 12:23:53;;;;;;;13.13;8.60;;;;;;;;;;5069236;28;20053;-63
2022/11/11 12:26:27;;;;;;;10.23;8.37;;;;;;;;;;5069134;28;20048;-63
2022/11/11 12:29:03;;;;;;;13.73;8.67;;;;;;;;;;5052819;28;20053;-63
2022/11/11 12:31:48;;;;;;;10.13;8.00;;;;;;;;;;5049064;28;20049;-63
2022/11/11 12:34:22;;;;;;;11.13;7.43;;;;;;;;;;5048832;28;20048;-62
2022/11/11 12:37:01;;;;;;;11.03;8.20;;;;;;;;;;5048934;28;20040;-63
2022/11/11 12:39:46;;;;;;;11.23;7.40;;;;;;;;;;5048907;28;20110;-63
2022/11/11 12:42:20;;;;;;;11.17;7.63;;;;;;;;;;5051077;28;20041;-63
2022/11/11 12:44:59;;;;;;;14.63;7.87;;;;;;;;;;5068695;28;20044;-63
2022/11/11 12:47:31;;;;;;;11.07;8.10;;;;;;;;;;5068645;28;20052;-63
2022/11/11 12:50:08;;;;;;;15.00;8.10;;;;;;;;;;5068265;28;20406;-63
2022/11/11 12:52:54;;;;;;;11.10;8.13;;;;;;;;;;5065498;28;20044;-63
2022/11/11 12:55:29;;;;;;;10.53;7.63;;;;;;;;;;5048373;28;20059;-63
2022/11/11 12:58:18;;;;;;;12.43;8.13;;;;;;;;;;5046884;28;20415;-63
2022/11/11 13:00:55;;;;;;;11.47;7.73;;;;;;;;;;5048382;28;20507;-63
2022/11/11 13:03:21;;;;;;;9.60;7.37;;;;;;;;;;5048508;28;20041;-63
2022/11/11 13:05:56;;;;;;;13.67;7.47;;;;;;;;;;5047999;28;20063;-63
2022/11/11 13:08:22;;;;;;;9.60;8.30;;;;;;;;;;5048278;28;20530;-63
2022/11/11 13:10:59;;;;;;;11.47;7.57;;;;;;;;;;5048158;28;20040;-63
2022/11/11 13:13:37;;;;;;;9.53;7.07;;;;;;;;;;5046817;28;20131;-63
2022/11/11 13:16:03;;;;;;;13.30;7.43;;;;;;;;;;5048360;28;20044;-63
2022/11/11 13:18:47;;;;;;;12.17;7.20;;;;;;;;;;5047730;28;20132;-63
2022/11/11 13:21:13;;;;;;;;;;;;;;;;;;5048488;28;20052;-63
2022/11/11 13:23:40;;;;;;;8.33;6.50;;;;;;;;;;5047927;28;20314;-63
2022/11/11 13:26:13;;;;;;;8.03;6.60;;;;;;;;;;5048294;28;20049;-63
2022/11/11 13:28:41;;;;;;;11.77;6.63;;;;;;;;;;5030134;28;20076;-63
2022/11/11 13:31:22;;;;;;;9.83;6.97;;;;;;;;;;5047512;28;20487;-63
2022/11/11 13:33:50;;;;;;;7.90;5.90;;;;;;;;;;5047866;28;20044;-63
2022/11/11 13:36:18;;;;;;;9.07;6.63;;;;;;;;;;5066514;28;20412;-63
2022/11/11 13:39:03;;;;;;;9.57;6.23;;;;;;;;;;5066917;28;20057;-63
2022/11/11 13:41:30;;;;;;;9.53;6.27;;;;;;;;;;5067384;28;20048;-63
2022/11/11 13:43:58;;;;;;;9.83;7.17;;;;;;;;;;5066464;28;20056;-63
2022/11/11 13:46:27;;;;;;;10.30;6.83;;;;;;;;;;5068068;28;20143;-63
2022/11/11 13:48:54;;;;;;;16.10;7.60;;;;;;;;;;5067517;28;20691;-63
2022/11/11 13:51:33;;;;;;;9.93;7.03;;;;;;;;;;5067479;28;20526;-63
2022/11/11 13:54:00;;;;;;;10.03;6.03;;;;;;;;;;5067324;28;20480;-63
2022/11/11 13:56:38;;;;;;;9.13;6.27;;;;;;;;;;5067791;28;20060;-63
2022/11/11 13:59:04;;;;;;;8.07;6.80;;;;;;;;;;5068116;28;20405;-63
2022/11/11 14:01:35;;;;;;;9.60;5.97;;;;;;;;;;5049910;28;20052;-63
2022/11/11 14:04:03;;;;;;;8.17;5.73;;;;;;;;;;5046975;28;20103;-63
2022/11/11 14:06:37;;;;;;;8.27;6.40;;;;;;;;;;5047475;28;20055;-63
2022/11/11 14:09:04;;;;;;;8.50;6.23;;;;;;;;;;5047195;28;20143;-63
2022/11/11 14:11:32;;;;;;;13.10;6.40;;;;;;;;;;5047791;28;20045;-63
2022/11/11 14:13:59;;;;;;;10.43;6.53;;;;;;;;;;5047546;28;20506;-63
2022/11/11 14:16:34;;;;;;;9.73;7.07;;;;;;;;;;5046857;28;20061;-63
2022/11/11 14:19:18;;;;;;;13.77;7.17;;;;;;;;;;5047344;28;20045;-63
2022/11/11 14:21:55;;;;;;;12.43;7.23;;;;;;;;;;5047211;28;20076;-63
2022/11/11 14:24:29;;;;;;;9.17;6.60;;;;;;;;;;5047627;28;20341;-63
2022/11/11 14:26:57;;;;;;;13.27;6.87;;;;;;;;;;5047316;28;20502;-63
2022/11/11 14:29:24;;;;;;;11.60;6.40;;;;;;;;;;5046665;28;20049;-63
2022/11/11 14:31:56;;;;;;;15.90;7.47;;;;;;;;;;5047410;28;20045;-63
2022/11/11 14:34:34;;;;;;;10.13;6.90;;;;;;;;;;5049197;28;20048;-63
2022/11/11 14:37:09;;;;;;;13.43;7.83;;;;;;;;;;5047558;28;20103;-63
2022/11/11 14:39:40;;;;;;;12.17;7.00;;;;;;;;;;5047366;28;20041;-62
2022/11/11 14:42:27;;;;;;;12.53;8.63;;;;;;;;;;5046494;28;20494;-63
2022/11/11 14:44:53;;;;;;;12.80;7.53;;;;;;;;;;5046473;28;20053;-63
2022/11/11 14:47:24;;;;;;;14.50;7.90;;;;;;;;;;5047049;28;20071;-63
2022/11/11 14:49:53;;;;;;;13.47;7.60;;;;;;;;;;5047132;28;20045;-63
2022/11/11 14:52:26;;;;;;;16.03;7.10;;;;;;;;;;5047443;28;20478;-63
2022/11/11 14:54:54;;;;;;;10.57;8.07;;;;;;;;;;5046788;28;20045;-63
2022/11/11 14:57:22;;;;;;;14.20;7.57;;;;;;;;;;5047472;28;20045;-63
2022/11/11 14:59:49;;;;;;;11.20;7.90;;;;;;;;;;5063745;28;20036;-63
2022/11/11 15:02:38;;;;;;;13.50;7.40;;;;;;;;;;5066863;28;20083;-63
2022/11/11 15:05:10;;;;;;;12.93;8.23;;;;;;;;;;5062512;28;20040;-63
2022/11/11 15:07:52;;;;;;;12.57;7.47;;;;;;;;;;5069854;28;20144;-63
2022/11/11 15:10:21;;;;;;;11.20;8.23;;;;;;;;;;5067863;28;20173;-63
2022/11/11 15:13:00;;;;;;;14.27;9.40;;;;;;;;;;5068594;28;20044;-62
2022/11/11 15:15:32;;;;;;;12.13;7.83;;;;;;;;;;5066201;28;20036;-63
2022/11/11 15:18:17;;;;;;;11.87;7.93;;;;;;;;;;5067022;28;20043;-62
2022/11/11 15:20:52;;;;;;;13.40;7.00;;;;;;;;;;5067597;28;20037;-62
2022/11/11 15:23:25;;;;;;;13.43;8.60;;;;;;;;;;5068184;28;20459;-63
2022/11/11 15:26:06;;;;;;;18.95;7.85;;;;;;;;;;5069800;28;20159;-63
2022/11/11 15:28:35;;;;;;;14.60;8.23;;;;;;;;;;5067713;28;20052;-62
2022/11/11 15:31:04;;;;;;;14.37;7.60;;;;;;;;;;5070202;28;20041;-63
2022/11/11 15:33:42;;;;;;;12.73;7.73;;;;;;;;;;5068496;28;20049;-62
2022/11/11 15:36:14;;;;;;;13.93;8.43;;;;;;;;;;5069931;28;20037;-62
2022/11/11 15:38:40;;;;;;;11.67;8.07;;;;;;;;;;5068500;28;20064;-63
2022/11/11 15:41:20;;;;;;;12.77;7.70;;;;;;;;;;5070001;28;20530;-63
2022/11/11 15:43:47;;;;;;;16.83;8.03;;;;;;;;;;5065496;28;20045;-63
2022/11/11 15:46:21;;;;;;;19.40;7.80;;;;;;;;;;5067951;28;20056;-63
2022/11/11 15:48:50;;;;;;;14.70;8.40;;;;;;;;;;5067472;28;20076;-63
2022/11/11 15:51:16;;;;;;;16.97;8.47;;;;;;;;;;5069829;28;20115;-63
2022/11/11 15:53:43;;;;;;;15.37;8.20;;;;;;;;;;5069803;28;20044;-63
2022/11/11 15:56:09;;;;;;;17.17;8.23;;;;;;;;;;5069371;28;20047;-63
2022/11/11 15:58:35;;;;;;;15.87;9.90;;;;;;;;;;5069022;28;20052;-62